Time;durP1;ratioP1;P1;durP2;ratioP2;P2;SDS_P1;SDS_P2;PMS_P1;PMS_P2;Temp;Humidity;BMP_temperature;BMP_pressure;BME280_temperature;BME280_humidity;BME280_pressure;Samples;Min_cycle;Max_cycle;Signal;HPM_P1;HPM_P2
2022/11/07 00:01:38;;;;;;;2.88;1.92;;;;;;;;;;10440061;28;20409;-80
2022/11/07 00:06:43;;;;;;;2.55;1.48;;;;;;;;;;10453168;28;20606;-80
2022/11/07 00:11:47;;;;;;;2.38;1.27;;;;;;;;;;10424455;28;20533;-80
2022/11/07 00:16:50;;;;;;;2.20;1.33;;;;;;;;;;10441527;28;20124;-79
2022/11/07 00:21:55;;;;;;;4.18;1.35;;;;;;;;;;10449023;28;20053;-79
2022/11/07 00:26:58;;;;;;;1.40;1.05;;;;;;;;;;10450496;28;20069;-80
2022/11/07 00:32:02;;;;;;;4.10;1.20;;;;;;;;;;10423722;28;20532;-79
2022/11/07 00:37:07;;;;;;;1.35;1.20;;;;;;;;;;10423359;28;20120;-79
2022/11/07 00:42:11;;;;;;;2.78;1.17;;;;;;;;;;10424252;28;20056;-79
2022/11/07 00:47:14;;;;;;;1.00;0.80;;;;;;;;;;10449476;28;20430;-79
2022/11/07 00:52:19;;;;;;;5.13;1.30;;;;;;;;;;10431581;28;20665;-80
2022/11/07 00:57:23;;;;;;;1.75;0.90;;;;;;;;;;10449552;28;20064;-79
2022/11/07 01:02:26;;;;;;;1.45;1.02;;;;;;;;;;10430288;28;20077;-79
2022/11/07 01:07:33;;;;;;;0.75;0.73;;;;;;;;;;10440437;28;20063;-79
2022/11/07 01:12:36;;;;;;;0.98;0.60;;;;;;;;;;10423024;28;20091;-79
2022/11/07 01:17:40;;;;;;;1.23;0.70;;;;;;;;;;10447242;28;20449;-80
2022/11/07 01:22:46;;;;;;;1.52;0.98;;;;;;;;;;10441455;28;20037;-80
2022/11/07 01:27:50;;;;;;;;;;;;;;;;;;10448761;28;20037;-80
2022/11/07 01:32:53;;;;;;;0.93;0.73;;;;;;;;;;10448868;28;19927;-79
2022/11/07 01:37:58;;;;;;;1.08;0.47;;;;;;;;;;10455301;28;20135;-79
2022/11/07 01:43:01;;;;;;;1.25;0.73;;;;;;;;;;10420296;28;20609;-79
2022/11/07 01:48:05;;;;;;;1.27;0.70;;;;;;;;;;10419876;28;20067;-80
2022/11/07 01:53:10;;;;;;;1.80;1.00;;;;;;;;;;10453938;28;20569;-80
2022/11/07 01:58:13;;;;;;;1.25;0.63;;;;;;;;;;10420821;28;20460;-80
2022/11/07 02:03:19;;;;;;;1.00;0.90;;;;;;;;;;10443824;28;20462;-80
2022/11/07 02:08:25;;;;;;;1.10;0.67;;;;;;;;;;10444398;28;20067;-79
2022/11/07 02:13:30;;;;;;;1.40;0.90;;;;;;;;;;10447683;28;20045;-80
2022/11/07 02:18:36;;;;;;;1.10;0.80;;;;;;;;;;10422610;28;20127;-80
2022/11/07 02:23:48;;;;;;;1.60;1.00;;;;;;;;;;10430833;28;20044;-80
2022/11/07 02:28:56;;;;;;;1.63;1.05;;;;;;;;;;10452999;28;20095;-79
2022/11/07 02:33:59;;;;;;;2.13;1.33;;;;;;;;;;10422127;28;20053;-79
2022/11/07 02:39:03;;;;;;;1.15;1.00;;;;;;;;;;10402560;28;20114;-79
2022/11/07 02:44:10;;;;;;;1.42;1.10;;;;;;;;;;10407312;28;20125;-79
2022/11/07 02:49:15;;;;;;;2.08;1.50;;;;;;;;;;10412419;28;20120;-80
2022/11/07 02:54:18;;;;;;;2.83;1.05;;;;;;;;;;10438595;28;20489;-79
2022/11/07 02:59:23;;;;;;;1.52;1.13;;;;;;;;;;10421691;28;20056;-79
2022/11/07 03:04:29;;;;;;;1.67;1.27;;;;;;;;;;10438663;28;20047;-80
2022/11/07 03:09:32;;;;;;;2.78;1.15;;;;;;;;;;10447106;28;20117;-80
2022/11/07 03:14:37;;;;;;;1.23;1.13;;;;;;;;;;10428321;28;20092;-79
2022/11/07 03:19:40;;;;;;;1.73;1.40;;;;;;;;;;10437921;28;20064;-79
2022/11/07 03:24:44;;;;;;;1.13;0.82;;;;;;;;;;10420399;28;20060;-79
2022/11/07 03:29:49;;;;;;;1.15;0.90;;;;;;;;;;10437978;28;20064;-80
2022/11/07 03:34:52;;;;;;;1.25;0.90;;;;;;;;;;10430231;28;20063;-80
2022/11/07 03:39:55;;;;;;;3.13;1.30;;;;;;;;;;10437328;28;20044;-80
2022/11/07 03:45:00;;;;;;;1.00;0.90;;;;;;;;;;10421045;28;20045;-80
2022/11/07 03:50:05;;;;;;;0.73;0.60;;;;;;;;;;10418887;28;20045;-80
2022/11/07 03:55:09;;;;;;;1.52;0.70;;;;;;;;;;10418544;28;20045;-79
2022/11/07 04:00:15;;;;;;;0.93;0.70;;;;;;;;;;10411540;28;20037;-80
2022/11/07 04:05:19;;;;;;;;;;;;;;;;;;10411330;28;20045;-80
2022/11/07 04:10:23;;;;;;;0.73;0.47;;;;;;;;;;10434043;28;20011;-80
2022/11/07 04:20:48;;;;;;;0.82;0.50;;;;;;;;;;10433751;28;20145;-80
2022/11/07 04:31:14;;;;;;;1.38;0.77;;;;;;;;;;10416288;28;20092;-79
2022/11/07 04:36:17;;;;;;;1.02;0.40;;;;;;;;;;10401547;28;20508;-79
2022/11/07 04:41:23;;;;;;;1.48;0.60;;;;;;;;;;10418754;28;20056;-79
2022/11/07 04:46:27;;;;;;;3.00;0.88;;;;;;;;;;10443526;28;20040;-79
2022/11/07 04:51:31;;;;;;;0.60;0.60;;;;;;;;;;10442022;28;20459;-79
2022/11/07 04:56:34;;;;;;;0.57;0.47;;;;;;;;;;10419457;28;20069;-80
2022/11/07 05:01:39;;;;;;;1.10;0.57;;;;;;;;;;10439624;28;20455;-80
2022/11/07 05:06:43;;;;;;;1.65;0.63;;;;;;;;;;10443648;28;20040;-80
2022/11/07 05:11:47;;;;;;;1.55;0.60;;;;;;;;;;10424227;28;20069;-79
2022/11/07 05:16:54;;;;;;;0.60;0.50;;;;;;;;;;10416220;28;20519;-79
2022/11/07 05:27:19;;;;;;;4.10;0.60;;;;;;;;;;10417176;28;20698;-79
2022/11/07 05:32:24;;;;;;;3.22;0.50;;;;;;;;;;10423961;28;20567;-79
2022/11/07 05:37:27;;;;;;;1.20;0.40;;;;;;;;;;10423458;28;20532;-79
2022/11/07 05:42:31;;;;;;;2.13;0.68;;;;;;;;;;10418430;28;20468;-79
2022/11/07 05:47:36;;;;;;;1.67;0.70;;;;;;;;;;10439170;28;20073;-79
2022/11/07 05:52:39;;;;;;;2.22;0.50;;;;;;;;;;10434500;28;20071;-80
2022/11/07 05:57:42;;;;;;;1.02;0.70;;;;;;;;;;10418149;28;20045;-80
2022/11/07 06:02:54;;;;;;;1.42;0.55;;;;;;;;;;10424230;28;20041;-80
2022/11/07 06:07:59;;;;;;;1.75;0.70;;;;;;;;;;10418198;28;20045;-80
2022/11/07 06:13:04;;;;;;;0.98;0.70;;;;;;;;;;10420073;28;20073;-79
2022/11/07 06:18:13;;;;;;;1.03;0.67;;;;;;;;;;10414336;28;20069;-80
2022/11/07 06:23:17;;;;;;;2.03;0.75;;;;;;;;;;10419915;28;20069;-80
2022/11/07 06:28:20;;;;;;;1.85;0.95;;;;;;;;;;10422408;28;20063;-80
2022/11/07 06:33:25;;;;;;;1.20;0.75;;;;;;;;;;10434798;28;20041;-80
2022/11/07 06:38:29;;;;;;;2.03;0.82;;;;;;;;;;10429498;28;20122;-80
2022/11/07 06:43:32;;;;;;;1.25;0.73;;;;;;;;;;10431132;28;20394;-80
2022/11/07 06:48:38;;;;;;;2.75;1.00;;;;;;;;;;10429410;28;20068;-80
2022/11/07 06:53:41;;;;;;;2.03;0.77;;;;;;;;;;10431954;28;20047;-80
2022/11/07 06:58:45;;;;;;;3.83;1.10;;;;;;;;;;10431246;28;20124;-80
2022/11/07 07:03:49;;;;;;;2.20;1.00;;;;;;;;;;10448595;28;20065;-80
2022/11/07 07:08:53;;;;;;;1.42;0.60;;;;;;;;;;10423199;28;20099;-80
2022/11/07 07:13:56;;;;;;;3.28;1.23;;;;;;;;;;10449007;28;20485;-80
2022/11/07 07:19:05;;;;;;;0.93;0.80;;;;;;;;;;10430430;28;21962;-79
2022/11/07 07:24:08;;;;;;;2.40;0.93;;;;;;;;;;10446557;28;20049;-80
2022/11/07 07:29:12;;;;;;;1.80;1.08;;;;;;;;;;10431422;28;20051;-82
2022/11/07 07:34:17;;;;;;;1.35;0.88;;;;;;;;;;10423810;28;20040;-81
2022/11/07 07:39:20;;;;;;;1.42;0.80;;;;;;;;;;10436671;28;20495;-82
2022/11/07 07:44:24;;;;;;;3.03;1.00;;;;;;;;;;10447435;28;20084;-81
2022/11/07 07:49:29;;;;;;;2.85;1.27;;;;;;;;;;10431920;28;20087;-81
2022/11/07 07:54:32;;;;;;;3.80;1.48;;;;;;;;;;10440135;28;20092;-82
2022/11/07 07:59:36;;;;;;;2.05;0.95;;;;;;;;;;10439698;28;20068;-80
2022/11/07 08:04:46;;;;;;;1.23;0.60;;;;;;;;;;10448050;28;20550;-80
2022/11/07 08:09:50;;;;;;;1.30;0.52;;;;;;;;;;10443171;28;20395;-82
2022/11/07 08:14:53;;;;;;;4.13;1.70;;;;;;;;;;10426746;28;20712;-82
2022/11/07 08:19:58;;;;;;;4.47;1.77;;;;;;;;;;10422162;28;20525;-83
2022/11/07 08:25:02;;;;;;;4.75;1.85;;;;;;;;;;10425723;28;20127;-81
2022/11/07 08:30:07;;;;;;;3.60;1.70;;;;;;;;;;10424587;28;20068;-82
2022/11/07 08:35:14;;;;;;;2.42;1.00;;;;;;;;;;10421136;28;20049;-81
2022/11/07 08:40:17;;;;;;;3.08;1.25;;;;;;;;;;10439726;28;20490;-81
2022/11/07 08:45:21;;;;;;;3.13;0.70;;;;;;;;;;10422321;28;20569;-83
2022/11/07 08:50:26;;;;;;;3.40;1.17;;;;;;;;;;10427280;28;20037;-81
2022/11/07 08:55:30;;;;;;;3.08;1.00;;;;;;;;;;10428321;28;20519;-81
2022/11/07 09:00:36;;;;;;;3.80;0.93;;;;;;;;;;10427357;28;20041;-81
2022/11/07 09:05:41;;;;;;;;;;;;;;;;;;10409680;28;20068;-80
2022/11/07 09:10:44;;;;;;;2.65;0.90;;;;;;;;;;10445743;28;19920;-81
2022/11/07 09:15:48;;;;;;;1.70;0.80;;;;;;;;;;10412219;28;20033;-81
2022/11/07 09:20:55;;;;;;;2.08;0.77;;;;;;;;;;10436476;28;20098;-82
2022/11/07 09:25:59;;;;;;;2.20;0.93;;;;;;;;;;10428974;28;20438;-80
2022/11/07 09:31:04;;;;;;;1.27;0.75;;;;;;;;;;10446912;28;20037;-81
2022/11/07 09:36:10;;;;;;;2.92;0.75;;;;;;;;;;10425145;28;20139;-81
2022/11/07 09:41:23;;;;;;;3.13;1.10;;;;;;;;;;10424939;28;20116;-81
2022/11/07 09:46:38;;;;;;;3.85;0.70;;;;;;;;;;10416739;28;20048;-80
2022/11/07 09:51:47;;;;;;;2.95;0.80;;;;;;;;;;10441566;28;20483;-81
2022/11/07 09:56:51;;;;;;;3.45;0.60;;;;;;;;;;10441463;28;20562;-80
2022/11/07 10:01:55;;;;;;;3.00;1.00;;;;;;;;;;10417118;28;20075;-81
2022/11/07 10:07:05;;;;;;;9.50;3.22;;;;;;;;;;10424334;28;20048;-81
2022/11/07 10:12:18;;;;;;;4.45;1.45;;;;;;;;;;10421947;28;20124;-80
2022/11/07 10:17:29;;;;;;;2.15;0.90;;;;;;;;;;10442093;28;20124;-81
2022/11/07 10:22:45;;;;;;;1.42;0.50;;;;;;;;;;10409880;28;20037;-80
2022/11/07 10:28:00;;;;;;;1.80;0.80;;;;;;;;;;10423508;28;20037;-80
2022/11/07 10:33:11;;;;;;;1.17;0.45;;;;;;;;;;10429512;28;20051;-81
2022/11/07 10:38:21;;;;;;;1.15;0.65;;;;;;;;;;10440863;28;20556;-81
2022/11/07 10:43:32;;;;;;;1.52;0.65;;;;;;;;;;10443225;28;20052;-81
2022/11/07 10:48:36;;;;;;;1.02;0.50;;;;;;;;;;10421854;28;20410;-81
2022/11/07 10:53:45;;;;;;;2.58;0.65;;;;;;;;;;10423697;28;20041;-82
2022/11/07 10:58:49;;;;;;;1.98;1.13;;;;;;;;;;10429441;28;20668;-81
2022/11/07 11:03:53;;;;;;;4.13;0.88;;;;;;;;;;10430706;28;20475;-81
2022/11/07 11:08:59;;;;;;;1.92;0.43;;;;;;;;;;10403639;28;20231;-81
2022/11/07 11:14:04;;;;;;;1.83;0.73;;;;;;;;;;10422518;28;20123;-82
2022/11/07 11:19:20;;;;;;;1.33;0.60;;;;;;;;;;10439866;28;20120;-81
2022/11/07 11:24:37;;;;;;;0.98;0.52;;;;;;;;;;10426162;28;20047;-82
2022/11/07 11:29:46;;;;;;;7.45;1.63;;;;;;;;;;10508344;23;20545;-82
2022/11/07 11:35:36;;;;;;;7.20;1.95;;;;;;;;;;10499814;28;20048;-81
2022/11/07 11:40:49;;;;;;;3.30;0.98;;;;;;;;;;10483519;28;20178;-81
2022/11/07 11:46:05;;;;;;;1.92;0.95;;;;;;;;;;10483124;28;20040;-81
2022/11/07 11:51:14;;;;;;;2.28;0.80;;;;;;;;;;10484195;28;20044;-81
2022/11/07 11:56:37;;;;;;;2.85;0.80;;;;;;;;;;10489032;28;20040;-82
2022/11/07 12:01:49;;;;;;;1.77;0.75;;;;;;;;;;10462285;28;20033;-81
2022/11/07 12:06:57;;;;;;;2.00;0.60;;;;;;;;;;10481101;28;20170;-81
2022/11/07 12:12:25;;;;;;;2.05;0.60;;;;;;;;;;10492498;28;20410;-81
2022/11/07 12:17:37;;;;;;;1.67;0.82;;;;;;;;;;10478495;28;20078;-81
2022/11/07 12:22:53;;;;;;;1.02;0.60;;;;;;;;;;10490168;28;20118;-81
2022/11/07 12:28:06;;;;;;;2.30;0.47;;;;;;;;;;10479085;28;20048;-81
2022/11/07 12:33:20;;;;;;;2.20;0.80;;;;;;;;;;10490586;28;20058;-82
2022/11/07 12:39:03;;;;;;;1.77;0.50;;;;;;;;;;10486365;28;20536;-81
2022/11/07 12:44:20;;;;;;;1.35;0.57;;;;;;;;;;10478118;28;20422;-81
2022/11/07 12:49:48;;;;;;;3.95;1.10;;;;;;;;;;10502097;28;20041;-81
2022/11/07 12:54:59;;;;;;;3.72;0.88;;;;;;;;;;10478465;28;20053;-81
2022/11/07 13:00:08;;;;;;;3.17;0.90;;;;;;;;;;10476074;28;20127;-81
2022/11/07 13:05:34;;;;;;;2.65;0.80;;;;;;;;;;10482874;28;20413;-81
2022/11/07 13:10:46;;;;;;;1.85;0.50;;;;;;;;;;10492043;28;20072;-82
2022/11/07 13:15:51;;;;;;;1.33;0.68;;;;;;;;;;10497359;28;20045;-82
2022/11/07 13:21:15;;;;;;;1.63;0.60;;;;;;;;;;10520201;28;20409;-81
2022/11/07 13:26:29;;;;;;;4.95;1.08;;;;;;;;;;10491287;28;20049;-81
2022/11/07 13:32:06;;;;;;;2.75;0.70;;;;;;;;;;10488661;28;20045;-82
2022/11/07 13:37:16;;;;;;;2.40;0.60;;;;;;;;;;10487261;28;20140;-82
2022/11/07 13:42:22;;;;;;;10.90;1.30;;;;;;;;;;10503808;28;20707;-82
2022/11/07 13:47:32;;;;;;;3.37;1.37;;;;;;;;;;10496520;28;20119;-82
2022/11/07 13:52:41;;;;;;;1.90;0.68;;;;;;;;;;10486684;28;20150;-82
2022/11/07 13:57:51;;;;;;;3.65;1.00;;;;;;;;;;10492301;28;20346;-82
2022/11/07 14:02:57;;;;;;;1.23;0.77;;;;;;;;;;10486075;28;20124;-81
2022/11/07 14:08:02;;;;;;;;;;;;;;;;;;10482770;28;20072;-81
2022/11/07 14:13:08;;;;;;;2.45;1.13;;;;;;;;;;10474894;28;20329;-81
2022/11/07 14:18:15;;;;;;;2.17;0.55;;;;;;;;;;10484107;28;20049;-81
2022/11/07 14:23:21;;;;;;;2.85;0.63;;;;;;;;;;10484236;28;20040;-81
2022/11/07 14:28:29;;;;;;;1.38;0.45;;;;;;;;;;10478716;28;20051;-81
2022/11/07 14:33:34;;;;;;;2.05;0.60;;;;;;;;;;10480715;28;20039;-81
2022/11/07 14:38:46;;;;;;;1.50;0.60;;;;;;;;;;10482134;28;20116;-80
2022/11/07 14:43:50;;;;;;;2.10;0.60;;;;;;;;;;10482572;28;20386;-81
2022/11/07 14:48:55;;;;;;;2.00;0.63;;;;;;;;;;10479564;28;20087;-80
2022/11/07 14:54:10;;;;;;;1.60;0.50;;;;;;;;;;10477499;28;20052;-80
2022/11/07 14:59:34;;;;;;;4.25;0.93;;;;;;;;;;10496279;28;20040;-81
2022/11/07 15:04:43;;;;;;;2.53;0.85;;;;;;;;;;10484997;28;20063;-80
2022/11/07 15:09:51;;;;;;;1.75;0.82;;;;;;;;;;10482600;28;20041;-81
2022/11/07 15:15:08;;;;;;;2.05;0.60;;;;;;;;;;10475715;28;20153;-81
2022/11/07 15:20:22;;;;;;;3.10;1.10;;;;;;;;;;10483543;28;20049;-81
2022/11/07 15:25:32;;;;;;;1.92;0.70;;;;;;;;;;10475578;28;20517;-81
2022/11/07 15:30:38;;;;;;;1.23;0.75;;;;;;;;;;10478323;28;20059;-81
2022/11/07 15:35:44;;;;;;;2.33;0.93;;;;;;;;;;10490616;28;20048;-81
2022/11/07 15:40:48;;;;;;;2.80;0.65;;;;;;;;;;10489679;28;20041;-81
2022/11/07 15:45:53;;;;;;;3.05;0.70;;;;;;;;;;10490899;28;20044;-81
2022/11/07 15:50:58;;;;;;;2.42;0.80;;;;;;;;;;10498486;28;20690;-81
2022/11/07 15:56:03;;;;;;;3.63;0.98;;;;;;;;;;10522745;28;20049;-81
2022/11/07 16:01:07;;;;;;;1.55;0.70;;;;;;;;;;10499145;28;20090;-80
2022/11/07 16:06:18;;;;;;;1.48;0.40;;;;;;;;;;10501706;28;20059;-82
2022/11/07 16:11:21;;;;;;;1.00;0.38;;;;;;;;;;10483230;28;20040;-81
2022/11/07 16:16:29;;;;;;;1.90;0.55;;;;;;;;;;10489956;28;20429;-81
2022/11/07 16:21:34;;;;;;;3.53;0.70;;;;;;;;;;10497774;28;20130;-82
2022/11/07 16:26:39;;;;;;;2.47;0.65;;;;;;;;;;10493995;28;20048;-81
2022/11/07 16:31:42;;;;;;;3.50;0.93;;;;;;;;;;10507955;28;20056;-81
2022/11/07 16:36:47;;;;;;;3.75;0.50;;;;;;;;;;10489795;28;20083;-81
2022/11/07 16:41:53;;;;;;;1.10;0.47;;;;;;;;;;10484311;28;20067;-81
2022/11/07 16:46:57;;;;;;;1.67;0.90;;;;;;;;;;10515414;28;20053;-81
2022/11/07 16:52:02;;;;;;;4.03;1.40;;;;;;;;;;10509228;28;20071;-81
2022/11/07 16:57:11;;;;;;;3.17;1.38;;;;;;;;;;10496901;28;20045;-81
2022/11/07 17:02:20;;;;;;;1.95;0.80;;;;;;;;;;10509251;28;20040;-81
2022/11/07 17:07:25;;;;;;;2.63;0.90;;;;;;;;;;10495726;28;20731;-81
2022/11/07 17:12:29;;;;;;;3.22;0.73;;;;;;;;;;10497848;28;20144;-81
2022/11/07 17:17:35;;;;;;;2.58;0.85;;;;;;;;;;10495863;28;20040;-80
2022/11/07 17:22:55;;;;;;;2.15;1.00;;;;;;;;;;10494878;28;20040;-79
2022/11/07 17:28:15;;;;;;;4.80;0.80;;;;;;;;;;10478184;28;20076;-81
2022/11/07 17:33:31;;;;;;;3.38;0.65;;;;;;;;;;10485790;28;20066;-81
2022/11/07 17:38:45;;;;;;;1.63;0.80;;;;;;;;;;10477662;28;20051;-81
2022/11/07 17:44:10;;;;;;;1.70;0.88;;;;;;;;;;10480230;28;20060;-81
2022/11/07 17:49:24;;;;;;;1.50;0.93;;;;;;;;;;10510901;28;20072;-80
2022/11/07 17:54:48;;;;;;;2.15;1.20;;;;;;;;;;10475780;28;20105;-81
2022/11/07 17:59:58;;;;;;;2.95;1.10;;;;;;;;;;10476353;28;20048;-81
2022/11/07 18:05:33;;;;;;;1.85;1.08;;;;;;;;;;10478452;28;20535;-81
2022/11/07 18:11:10;;;;;;;3.35;1.25;;;;;;;;;;10497172;22;20139;-82
2022/11/07 18:16:37;;;;;;;2.25;1.25;;;;;;;;;;10434090;28;20048;-81
2022/11/07 18:21:49;;;;;;;1.90;0.98;;;;;;;;;;10452088;28;20040;-81
2022/11/07 18:27:00;;;;;;;2.40;1.30;;;;;;;;;;10411641;28;20646;-81
2022/11/07 18:32:11;;;;;;;2.58;1.00;;;;;;;;;;10440906;28;20047;-82
2022/11/07 18:37:33;;;;;;;1.73;1.10;;;;;;;;;;10429789;28;20079;-81
2022/11/07 18:43:05;;;;;;;1.52;0.80;;;;;;;;;;10433266;28;20136;-81
2022/11/07 18:48:33;;;;;;;1.83;0.80;;;;;;;;;;10437643;28;20406;-81
2022/11/07 18:53:44;;;;;;;1.83;0.60;;;;;;;;;;10434805;28;20049;-81
2022/11/07 18:58:57;;;;;;;0.73;0.60;;;;;;;;;;10448936;28;20043;-81
2022/11/07 19:04:18;;;;;;;1.45;0.70;;;;;;;;;;10419842;28;20045;-82
2022/11/07 19:09:33;;;;;;;1.92;0.65;;;;;;;;;;10428599;28;20033;-82
2022/11/07 19:14:38;;;;;;;1.40;0.70;;;;;;;;;;10424898;28;20056;-80
2022/11/07 19:19:41;;;;;;;2.00;0.82;;;;;;;;;;10443354;28;20045;-81
2022/11/07 19:24:45;;;;;;;1.90;0.70;;;;;;;;;;10441579;28;20059;-81
2022/11/07 19:29:50;;;;;;;4.25;1.10;;;;;;;;;;10426468;28;20065;-82
2022/11/07 19:34:54;;;;;;;2.30;1.00;;;;;;;;;;10423096;28;20041;-82
2022/11/07 19:39:57;;;;;;;1.45;1.00;;;;;;;;;;10434034;28;20088;-82
2022/11/07 19:45:02;;;;;;;1.50;0.93;;;;;;;;;;10441399;28;20110;-81
2022/11/07 19:50:06;;;;;;;2.42;1.52;;;;;;;;;;10434964;28;20037;-81
2022/11/07 19:55:10;;;;;;;3.38;1.40;;;;;;;;;;10438770;28;20520;-82
2022/11/07 20:00:16;;;;;;;6.70;3.50;;;;;;;;;;10443449;28;20102;-81
2022/11/07 20:05:22;;;;;;;12.73;6.75;;;;;;;;;;10441242;28;20455;-81
2022/11/07 20:10:26;;;;;;;13.52;6.97;;;;;;;;;;10429552;28;20044;-81
2022/11/07 20:15:31;;;;;;;11.57;5.22;;;;;;;;;;10441378;28;20037;-81
2022/11/07 20:20:34;;;;;;;7.85;4.97;;;;;;;;;;10426043;28;20068;-82
2022/11/07 20:25:40;;;;;;;7.65;4.25;;;;;;;;;;10438956;28;20479;-82
2022/11/07 20:30:45;;;;;;;5.30;3.28;;;;;;;;;;10444418;28;20051;-81
2022/11/07 20:35:58;;;;;;;5.47;2.55;;;;;;;;;;10442048;28;20498;-82
2022/11/07 20:41:03;;;;;;;4.75;2.25;;;;;;;;;;10427794;28;20049;-81
2022/11/07 20:46:10;;;;;;;7.32;3.72;;;;;;;;;;10436427;28;20124;-81
2022/11/07 20:51:15;;;;;;;6.50;3.15;;;;;;;;;;10443391;28;20111;-82
2022/11/07 20:56:20;;;;;;;4.90;2.58;;;;;;;;;;10445684;28;20119;-83
2022/11/07 21:01:28;;;;;;;3.97;2.63;;;;;;;;;;10430332;28;20124;-81
2022/11/07 21:06:32;;;;;;;5.55;3.17;;;;;;;;;;10424867;28;20049;-81
2022/11/07 21:11:35;;;;;;;7.07;3.70;;;;;;;;;;10432033;28;20133;-82
2022/11/07 21:16:40;;;;;;;6.32;2.95;;;;;;;;;;10423521;28;20259;-81
2022/11/07 21:21:44;;;;;;;5.47;2.30;;;;;;;;;;10429407;28;20041;-82
2022/11/07 21:26:47;;;;;;;3.65;1.40;;;;;;;;;;10437804;28;20124;-81
2022/11/07 21:31:52;;;;;;;2.25;1.20;;;;;;;;;;10438274;28;20056;-81
2022/11/07 21:36:55;;;;;;;4.30;1.60;;;;;;;;;;10421215;28;20040;-81
2022/11/07 21:41:59;;;;;;;6.65;1.83;;;;;;;;;;10438933;28;20876;-82
2022/11/07 21:47:03;;;;;;;3.03;1.25;;;;;;;;;;10423570;28;20095;-81
2022/11/07 21:52:07;;;;;;;4.80;1.38;;;;;;;;;;10430306;28;20140;-83
2022/11/07 21:57:11;;;;;;;1.10;1.00;;;;;;;;;;10436054;28;20045;-82
2022/11/07 22:02:16;;;;;;;1.85;0.93;;;;;;;;;;10444277;28;20055;-81
2022/11/07 22:07:19;;;;;;;2.10;1.13;;;;;;;;;;10423579;28;20041;-83
2022/11/07 22:12:22;;;;;;;3.67;1.00;;;;;;;;;;10431850;28;20411;-81
2022/11/07 22:17:27;;;;;;;2.90;0.90;;;;;;;;;;10425477;28;20096;-81
2022/11/07 22:22:31;;;;;;;2.78;1.10;;;;;;;;;;10420725;28;20517;-81
2022/11/07 22:27:36;;;;;;;4.45;1.33;;;;;;;;;;10437442;28;20037;-81
2022/11/07 22:32:40;;;;;;;2.47;1.10;;;;;;;;;;10438332;28;20450;-83
2022/11/07 22:37:44;;;;;;;2.78;1.20;;;;;;;;;;10438563;28;20037;-81
2022/11/07 22:42:47;;;;;;;2.60;1.30;;;;;;;;;;10420943;28;20040;-81
2022/11/07 22:47:52;;;;;;;3.78;1.15;;;;;;;;;;10420556;28;20138;-82
2022/11/07 22:52:55;;;;;;;2.42;1.10;;;;;;;;;;10431278;28;20083;-82
2022/11/07 22:57:59;;;;;;;1.05;0.90;;;;;;;;;;10439137;28;20618;-82
2022/11/07 23:03:04;;;;;;;2.03;1.00;;;;;;;;;;10429724;28;20041;-81
2022/11/07 23:08:08;;;;;;;1.58;0.95;;;;;;;;;;10435285;28;20053;-82
2022/11/07 23:13:11;;;;;;;1.13;0.77;;;;;;;;;;10427445;28;20046;-81
2022/11/07 23:18:16;;;;;;;2.80;0.82;;;;;;;;;;10442685;28;20037;-81
2022/11/07 23:23:20;;;;;;;1.85;0.95;;;;;;;;;;10438459;28;20055;-81
2022/11/07 23:28:23;;;;;;;1.02;0.80;;;;;;;;;;10445887;28;20073;-81
2022/11/07 23:33:28;;;;;;;2.47;1.20;;;;;;;;;;10442759;28;20314;-81
2022/11/07 23:38:32;;;;;;;1.20;0.88;;;;;;;;;;10427201;28;20047;-81
2022/11/07 23:43:36;;;;;;;1.48;1.10;;;;;;;;;;10429078;28;20043;-81
